Time;durP1;ratioP1;P1;durP2;ratioP2;P2;SDS_P1;SDS_P2;PMS_P1;PMS_P2;Temp;Humidity;BMP_temperature;BMP_pressure;BME280_temperature;BME280_humidity;BME280_pressure;Samples;Min_cycle;Max_cycle;Signal;HPM_P1;HPM_P2
2021/07/15 00:01:34;;;;;;;0.40;0.20;;;;;;;18.00;100.00;99624.66;5019961;28;20427;-83
2021/07/15 00:04:00;;;;;;;0.40;0.20;;;;;;;17.85;100.00;99612.28;5068225;28;20451;-84
2021/07/15 00:06:35;;;;;;;0.40;0.20;;;;;;;17.81;100.00;99616.13;5040593;28;20466;-83
2021/07/15 00:09:03;;;;;;;0.60;0.60;;;;;;;17.80;100.00;99618.94;5055472;28;20859;-83
2021/07/15 00:11:31;;;;;;;0.40;0.20;;;;;;;17.87;100.00;99604.97;5029922;28;20505;-84
2021/07/15 00:13:57;;;;;;;0.40;0.20;;;;;;;18.12;100.00;99614.03;5017304;28;20989;-84
2021/07/15 00:16:24;;;;;;;0.40;0.20;;;;;;;18.12;100.00;99605.94;5035734;28;20946;-84
2021/07/15 00:18:52;;;;;;;0.40;0.20;;;;;;;18.10;100.00;99605.19;5071041;28;20442;-84
2021/07/15 00:21:22;;;;;;;0.40;0.20;;;;;;;18.05;100.00;99603.66;5039422;28;20472;-83
2021/07/15 00:23:50;;;;;;;0.40;0.20;;;;;;;17.99;100.00;99597.88;5054724;28;20429;-84
2021/07/15 00:26:20;;;;;;;1.80;1.80;;;;;;;17.94;100.00;99606.25;5035145;28;20464;-84
2021/07/15 00:28:47;;;;;;;0.40;0.20;;;;;;;17.91;100.00;99602.91;5029009;28;20418;-84
2021/07/15 00:31:14;;;;;;;0.40;0.20;;;;;;;17.86;100.00;99605.94;5041817;23;20525;-80
2021/07/15 00:33:41;;;;;;;0.40;0.20;;;;;;;17.81;100.00;99605.38;5005748;28;20448;-80
2021/07/15 00:36:08;;;;;;;0.40;0.20;;;;;;;17.80;100.00;99618.94;5009600;28;20456;-79
2021/07/15 00:38:35;;;;;;;0.40;0.30;;;;;;;17.60;100.00;99609.53;5007176;28;20517;-79
2021/07/15 00:41:02;;;;;;;0.40;0.20;;;;;;;17.60;100.00;99607.69;5015702;28;20478;-80
2021/07/15 00:43:29;;;;;;;0.50;0.40;;;;;;;17.70;100.00;99605.28;5015333;28;20489;-80
2021/07/15 00:45:56;;;;;;;0.40;0.20;;;;;;;17.57;100.00;99615.13;5032448;28;20475;-79
2021/07/15 00:48:22;;;;;;;0.40;0.20;;;;;;;17.62;100.00;99621.91;5004649;28;20871;-81
2021/07/15 00:50:49;;;;;;;0.40;0.20;;;;;;;17.66;100.00;99620.72;5000766;28;20574;-80
2021/07/15 00:53:17;;;;;;;0.40;0.20;;;;;;;17.80;100.00;99614.41;5030914;28;20889;-81
2021/07/15 00:55:45;;;;;;;0.40;0.20;;;;;;;17.62;100.00;99612.97;5014258;28;20480;-80
2021/07/15 00:58:14;;;;;;;0.40;0.20;;;;;;;17.41;100.00;99605.41;5003462;28;20508;-81
2021/07/15 01:00:43;;;;;;;0.40;0.20;;;;;;;17.48;100.00;99605.84;5012735;28;20516;-81
2021/07/15 01:03:11;;;;;;;0.40;0.20;;;;;;;17.53;100.00;99611.75;5013990;28;20471;-81
2021/07/15 01:05:44;;;;;;;0.40;0.20;;;;;;;17.54;100.00;99618.84;5013227;28;20448;-81
2021/07/15 01:08:12;;;;;;;0.40;0.20;;;;;;;17.51;100.00;99621.75;5030438;28;20478;-81
2021/07/15 01:10:46;;;;;;;0.40;0.20;;;;;;;17.52;100.00;99619.94;5039659;28;20420;-80
2021/07/15 01:13:16;;;;;;;0.40;0.20;;;;;;;17.30;100.00;99623.22;5013936;28;20435;-81
2021/07/15 01:15:58;;;;;;;0.40;0.20;;;;;;;17.05;100.00;99632.03;5021542;28;20485;-80
2021/07/15 01:18:41;;;;;;;0.40;0.20;;;;;;;17.10;100.00;99636.13;4998470;28;20462;-79
2021/07/15 01:21:44;;;;;;;0.40;0.20;;;;;;;17.06;100.00;99647.19;5013726;28;20456;-79
2021/07/15 01:24:20;;;;;;;0.40;0.20;;;;;;;17.19;100.00;99650.78;5015435;28;20446;-79
2021/07/15 01:27:24;;;;;;;0.40;0.20;;;;;;;17.27;100.00;99656.53;5029743;28;20489;-79
2021/07/15 01:30:09;;;;;;;0.40;0.20;;;;;;;17.22;100.00;99660.47;5011643;28;20443;-79
2021/07/15 01:32:54;;;;;;;0.40;0.20;;;;;;;17.21;100.00;99656.06;5004183;28;20903;-79
2021/07/15 01:35:26;;;;;;;0.40;0.20;;;;;;;17.27;100.00;99663.69;5003175;28;20502;-79
2021/07/15 01:37:57;;;;;;;0.40;0.20;;;;;;;17.29;100.00;99659.97;5000758;28;20514;-79
2021/07/15 01:40:31;;;;;;;0.40;0.20;;;;;;;17.26;100.00;99665.53;5006451;28;20432;-79
2021/07/15 01:43:02;;;;;;;0.40;0.20;;;;;;;17.12;100.00;99670.94;5012785;28;21022;-80
2021/07/15 01:45:30;;;;;;;0.40;0.30;;;;;;;17.17;100.00;99671.53;5014187;28;20430;-79
2021/07/15 01:47:57;;;;;;;0.40;0.20;;;;;;;17.03;100.00;99658.13;5012914;28;20444;-79
2021/07/15 01:50:24;;;;;;;0.40;0.20;;;;;;;17.10;100.00;99664.81;5027168;28;20428;-79
2021/07/15 01:52:52;;;;;;;0.90;0.73;;;;;;;16.99;100.00;99649.41;5004409;28;20497;-79
2021/07/15 01:55:20;;;;;;;0.50;0.40;;;;;;;17.28;100.00;99666.31;5012420;28;20521;-79
2021/07/15 01:57:49;;;;;;;0.40;0.20;;;;;;;17.36;100.00;99669.34;5045533;28;20453;-80
2021/07/15 02:00:16;;;;;;;0.40;0.20;;;;;;;17.44;100.00;99667.00;5013942;28;20430;-79
2021/07/15 02:02:44;;;;;;;0.40;0.20;;;;;;;17.47;100.00;99655.19;5012259;28;20939;-79
2021/07/15 02:05:12;;;;;;;0.40;0.20;;;;;;;17.56;100.00;99654.56;5012947;28;20850;-79
2021/07/15 02:07:41;;;;;;;0.40;0.20;;;;;;;17.58;100.00;99660.72;5028160;28;20434;-79
2021/07/15 02:10:17;;;;;;;0.40;0.20;;;;;;;17.56;100.00;99654.56;5006150;28;20536;-79
2021/07/15 02:12:44;;;;;;;0.40;0.20;;;;;;;17.55;100.00;99655.53;5012277;28;20439;-79
2021/07/15 02:15:11;;;;;;;0.40;0.20;;;;;;;17.60;100.00;99655.22;5011849;28;20537;-79
2021/07/15 02:17:42;;;;;;;0.40;0.20;;;;;;;17.58;100.00;99657.16;5012194;28;20515;-79
2021/07/15 02:20:13;;;;;;;0.40;0.20;;;;;;;17.63;100.00;99657.69;5000320;28;20440;-80
2021/07/15 02:22:41;;;;;;;0.40;0.20;;;;;;;17.76;100.00;99653.25;4998829;28;20448;-80
2021/07/15 02:25:09;;;;;;;0.40;0.20;;;;;;;17.74;100.00;99650.66;5010913;28;20453;-79
2021/07/15 02:27:39;;;;;;;0.40;0.20;;;;;;;17.75;100.00;99654.22;5012090;28;20460;-80
2021/07/15 02:30:09;;;;;;;0.40;0.20;;;;;;;17.72;100.00;99655.28;5011804;28;20965;-79
2021/07/15 02:32:45;;;;;;;0.40;0.20;;;;;;;17.74;100.00;99653.34;5043511;28;21025;-79
2021/07/15 02:35:16;;;;;;;0.40;0.20;;;;;;;17.69;100.00;99649.25;5012134;28;20551;-79
2021/07/15 02:37:45;;;;;;;0.40;0.20;;;;;;;17.65;100.00;99661.13;5013010;28;20472;-80
2021/07/15 02:40:15;;;;;;;0.40;0.20;;;;;;;17.51;100.00;99656.69;5008947;28;20425;-80
2021/07/15 02:42:44;;;;;;;0.40;0.20;;;;;;;17.61;100.00;99670.38;5023513;28;20456;-80
2021/07/15 02:45:14;;;;;;;0.40;0.20;;;;;;;17.59;100.00;99659.75;5019876;28;20453;-80
2021/07/15 02:47:43;;;;;;;0.40;0.20;;;;;;;17.58;100.00;99666.09;5024626;28;20453;-80
2021/07/15 02:50:13;;;;;;;0.40;0.20;;;;;;;17.44;100.00;99658.09;5046184;28;20412;-80
2021/07/15 02:52:41;;;;;;;0.40;0.20;;;;;;;17.45;100.00;99657.97;5012138;28;20507;-80
2021/07/15 02:55:10;;;;;;;0.40;0.30;;;;;;;17.47;100.00;99656.03;5012548;28;20470;-80
2021/07/15 02:57:45;;;;;;;0.40;0.20;;;;;;;17.45;100.00;99655.28;5011760;28;20428;-80
2021/07/15 03:00:14;;;;;;;0.40;0.30;;;;;;;17.26;100.00;99654.78;5028515;28;20456;-80
2021/07/15 03:03:09;;;;;;;0.40;0.20;;;;;;;17.20;100.00;99668.63;5014044;28;20450;-80
2021/07/15 03:05:44;;;;;;;0.40;0.20;;;;;;;17.46;100.00;99673.13;5012582;28;20415;-81
2021/07/15 03:08:22;;;;;;;0.40;0.20;;;;;;;17.28;100.00;99669.00;5029387;28;20445;-80
2021/07/15 03:10:52;;;;;;;0.40;0.20;;;;;;;17.26;100.00;99681.66;5003078;28;20443;-80
2021/07/15 03:13:20;;;;;;;0.40;0.30;;;;;;;17.23;100.00;99681.00;5007872;28;20981;-80
2021/07/15 03:15:46;;;;;;;2.20;2.00;;;;;;;17.25;100.00;99677.22;4993346;28;20488;-80
2021/07/15 03:18:17;;;;;;;0.40;0.20;;;;;;;17.14;100.00;99674.41;5008566;28;20802;-80
2021/07/15 03:20:45;;;;;;;0.40;0.20;;;;;;;17.15;100.00;99676.13;5014169;28;20440;-80
2021/07/15 03:23:16;;;;;;;0.40;0.20;;;;;;;17.29;100.00;99683.28;5000935;28;20477;-81
2021/07/15 03:25:48;;;;;;;0.40;0.20;;;;;;;17.35;100.00;99670.28;5014364;28;20448;-81
2021/07/15 03:28:17;;;;;;;0.40;0.30;;;;;;;17.33;100.00;99672.22;5001874;28;20810;-80
2021/07/15 03:30:45;;;;;;;0.40;0.20;;;;;;;17.36;100.00;99669.34;5032570;28;20840;-80
2021/07/15 03:33:13;;;;;;;0.40;0.20;;;;;;;17.47;100.00;99669.47;4993933;28;20452;-81
2021/07/15 03:35:43;;;;;;;0.50;0.43;;;;;;;17.45;100.00;99670.56;5007095;28;20489;-81
2021/07/15 03:38:11;;;;;;;0.40;0.20;;;;;;;17.31;100.00;99671.47;5014673;28;20877;-80
2021/07/15 03:40:38;;;;;;;0.67;0.67;;;;;;;17.22;100.00;99672.06;5036236;28;20460;-79
2021/07/15 03:43:08;;;;;;;0.40;0.20;;;;;;;17.32;100.00;99681.25;5016632;28;20523;-80
2021/07/15 03:45:35;;;;;;;0.40;0.20;;;;;;;17.33;100.00;99680.28;5011099;28;20453;-79
2021/07/15 03:48:03;;;;;;;0.40;0.20;;;;;;;17.40;100.00;99668.16;5014023;28;20473;-79
2021/07/15 03:50:31;;;;;;;0.40;0.20;;;;;;;17.57;100.00;99685.88;5013502;28;20575;-79
2021/07/15 03:53:03;;;;;;;0.40;0.30;;;;;;;17.52;100.00;99693.34;5014076;28;20477;-79
2021/07/15 03:55:34;;;;;;;0.40;0.20;;;;;;;17.26;100.00;99687.00;5013286;28;20558;-79
2021/07/15 03:58:06;;;;;;;0.40;0.20;;;;;;;17.27;100.00;99683.41;5012302;28;20454;-79
2021/07/15 04:00:34;;;;;;;0.40;0.20;;;;;;;17.30;100.00;99672.44;5013897;28;20787;-79
2021/07/15 04:03:02;;;;;;;0.70;0.70;;;;;;;17.28;100.00;99677.06;5000146;28;20991;-79
2021/07/15 04:05:30;;;;;;;0.40;0.20;;;;;;;17.22;100.00;99687.31;5006697;28;20989;-79
2021/07/15 04:07:59;;;;;;;0.40;0.20;;;;;;;17.16;100.00;99683.22;5004505;28;20484;-79
2021/07/15 04:10:29;;;;;;;0.40;0.20;;;;;;;17.21;100.00;99690.97;5033811;28;20490;-80
2021/07/15 04:12:58;;;;;;;0.40;0.20;;;;;;;16.99;100.00;99694.19;5008595;28;20498;-79
2021/07/15 04:16:09;;;;;;;0.40;0.33;;;;;;;16.94;100.00;99699.00;5000230;28;20453;-80
2021/07/15 04:18:39;;;;;;;0.40;0.20;;;;;;;16.92;100.00;99698.25;5014999;28;20779;-79
2021/07/15 04:21:07;;;;;;;0.40;0.20;;;;;;;17.03;100.00;99696.59;5028002;28;20538;-79
2021/07/15 04:23:35;;;;;;;0.40;0.20;;;;;;;17.04;100.00;99705.50;5000251;28;20470;-79
2021/07/15 04:26:02;;;;;;;0.40;0.20;;;;;;;17.30;100.00;99709.19;5012082;28;20507;-79
2021/07/15 04:28:29;;;;;;;0.40;0.20;;;;;;;17.03;100.00;99719.91;5001096;28;20448;-79
2021/07/15 04:31:18;;;;;;;0.40;0.20;;;;;;;17.01;100.00;99721.81;5015455;28;20507;-79
2021/07/15 04:33:46;;;;;;;0.50;0.40;;;;;;;17.03;100.00;99717.22;5016649;28;20824;-79
2021/07/15 04:36:13;;;;;;;0.40;0.20;;;;;;;16.90;100.00;99725.19;5004137;28;21074;-79
2021/07/15 04:38:42;;;;;;;0.50;0.47;;;;;;;17.15;100.00;99738.78;5032067;28;20422;-79
2021/07/15 04:41:11;;;;;;;0.40;0.20;;;;;;;17.30;100.00;99731.53;5017052;28;20426;-79
2021/07/15 04:43:39;;;;;;;0.40;0.20;;;;;;;17.14;100.00;99742.41;5015745;28;20447;-81
2021/07/15 04:46:10;;;;;;;1.07;0.97;;;;;;;17.04;100.00;99741.28;5002668;28;20522;-79
2021/07/15 04:48:37;;;;;;;0.40;0.20;;;;;;;17.02;100.00;99750.41;5017058;28;20449;-79
2021/07/15 04:51:06;;;;;;;0.50;0.40;;;;;;;17.06;100.00;99766.22;5015622;28;20431;-79
2021/07/15 04:53:32;;;;;;;0.40;0.20;;;;;;;17.18;100.00;99768.13;5015934;28;20494;-80
2021/07/15 04:56:00;;;;;;;0.40;0.20;;;;;;;17.14;100.00;99763.06;5016444;28;20525;-80
2021/07/15 04:58:27;;;;;;;0.40;0.30;;;;;;;17.29;100.00;99763.88;5017068;28;20916;-80
2021/07/15 05:00:54;;;;;;;0.40;0.20;;;;;;;17.34;100.00;99769.81;5032885;28;21015;-80
2021/07/15 05:03:33;;;;;;;0.40;0.20;;;;;;;17.46;100.00;99775.25;5017185;28;20473;-82
2021/07/15 05:06:02;;;;;;;0.40;0.30;;;;;;;17.62;100.00;99766.19;5013036;28;20438;-81
2021/07/15 05:08:29;;;;;;;0.40;0.20;;;;;;;17.66;100.00;99765.88;4998962;28;20453;-81
2021/07/15 05:10:57;;;;;;;0.40;0.30;;;;;;;17.70;100.00;99770.13;5015609;28;20431;-81
2021/07/15 05:13:25;;;;;;;0.40;0.20;;;;;;;17.86;100.00;99780.72;5017467;28;20527;-81
2021/07/15 05:15:52;;;;;;;0.40;0.20;;;;;;;17.87;100.00;99774.38;5022631;28;20471;-81
2021/07/15 05:18:21;;;;;;;0.40;0.20;;;;;;;18.04;100.00;99768.72;4999659;28;20466;-81
2021/07/15 05:20:48;;;;;;;0.40;0.20;;;;;;;17.98;100.00;99765.59;5015959;28;20467;-81
2021/07/15 05:23:15;;;;;;;0.40;0.20;;;;;;;18.11;100.00;99762.94;5017466;28;20511;-81
2021/07/15 05:25:41;;;;;;;0.40;0.20;;;;;;;17.84;100.00;99755.78;5016169;28;20449;-80
2021/07/15 05:28:08;;;;;;;0.40;0.20;;;;;;;17.88;100.00;99765.34;5016346;28;20458;-81
2021/07/15 05:30:35;;;;;;;0.40;0.20;;;;;;;17.95;100.00;99772.00;5016565;28;20495;-81
2021/07/15 05:33:02;;;;;;;0.40;0.30;;;;;;;18.09;100.00;99780.97;5015609;28;20928;-82
2021/07/15 05:35:29;;;;;;;0.40;0.20;;;;;;;17.94;100.00;99785.56;5017352;28;20503;-81
2021/07/15 05:37:58;;;;;;;0.40;0.20;;;;;;;18.02;100.00;99783.25;5016884;28;20491;-81
2021/07/15 05:40:26;;;;;;;0.40;0.20;;;;;;;18.13;100.00;99775.31;5014653;28;20423;-81
2021/07/15 05:42:57;;;;;;;0.40;0.20;;;;;;;18.24;100.00;99767.38;5015555;28;20443;-81
2021/07/15 05:45:24;;;;;;;0.40;0.20;;;;;;;18.03;100.00;99776.91;5015655;28;20930;-81
2021/07/15 05:47:51;;;;;;;0.40;0.20;;;;;;;18.25;100.00;99777.16;5016015;28;20472;-81
2021/07/15 05:50:18;;;;;;;0.40;0.20;;;;;;;18.07;100.00;99767.63;5015751;28;20765;-81
2021/07/15 05:52:44;;;;;;;0.40;0.20;;;;;;;18.31;100.00;99773.19;5015877;28;20815;-81
2021/07/15 05:55:12;;;;;;;0.40;0.20;;;;;;;18.27;100.00;99771.69;5015327;28;20463;-82
2021/07/15 05:57:39;;;;;;;0.40;0.20;;;;;;;18.28;100.00;99776.09;5015861;28;20833;-81
2021/07/15 06:00:09;;;;;;;0.40;0.20;;;;;;;18.39;100.00;99775.34;5016069;28;20419;-81
2021/07/15 06:02:35;;;;;;;0.40;0.20;;;;;;;18.25;100.00;99779.84;5016004;28;20461;-80
2021/07/15 06:05:22;;;;;;;0.40;0.20;;;;;;;18.04;100.00;99774.09;5017732;28;20459;-81
2021/07/15 06:07:52;;;;;;;0.40;0.20;;;;;;;17.76;100.00;99748.19;5016197;28;20423;-81
2021/07/15 06:10:20;;;;;;;0.40;0.20;;;;;;;17.46;100.00;99755.59;5016039;28;20452;-81
2021/07/15 06:12:46;;;;;;;0.40;0.20;;;;;;;17.35;100.00;99756.28;5015941;28;20554;-81
2021/07/15 06:15:13;;;;;;;0.50;0.40;;;;;;;17.86;100.00;99799.53;5016148;28;20426;-80
2021/07/15 06:17:41;;;;;;;0.40;0.20;;;;;;;17.89;100.00;99758.13;5015796;28;20906;-80
2021/07/15 06:20:12;;;;;;;0.40;0.20;;;;;;;18.12;100.00;99762.84;5016678;28;20770;-81
2021/07/15 06:22:44;;;;;;;0.40;0.20;;;;;;;18.04;100.00;99774.09;5015861;28;20536;-81
2021/07/15 06:25:12;;;;;;;0.40;0.20;;;;;;;17.79;100.00;99762.41;5008578;28;20424;-81
2021/07/15 06:27:40;;;;;;;1.10;1.07;;;;;;;18.18;100.00;99785.75;5014447;28;20448;-81
2021/07/15 06:30:08;;;;;;;0.40;0.20;;;;;;;18.22;100.00;99781.88;5015452;28;20429;-81
2021/07/15 06:32:35;;;;;;;0.80;0.73;;;;;;;18.45;100.00;99799.16;5015223;28;20495;-81
2021/07/15 06:35:04;;;;;;;0.40;0.20;;;;;;;18.54;100.00;99790.44;5008366;28;20445;-82
2021/07/15 06:37:37;;;;;;;0.40;0.20;;;;;;;18.54;100.00;99780.53;5010692;28;20604;-81
2021/07/15 06:40:06;;;;;;;0.40;0.30;;;;;;;18.55;100.00;99782.25;5013944;28;20452;-81
2021/07/15 06:42:33;;;;;;;0.40;0.20;;;;;;;18.43;100.00;99780.41;5015977;28;20435;-81
2021/07/15 06:45:00;;;;;;;0.40;0.20;;;;;;;18.48;100.00;99783.63;5012126;28;20503;-81
2021/07/15 06:47:27;;;;;;;0.40;0.20;;;;;;;18.34;100.00;99789.13;5006869;28;20455;-83
2021/07/15 06:49:55;;;;;;;0.40;0.20;;;;;;;18.23;100.00;99802.47;5008505;28;20450;-83
2021/07/15 06:52:24;;;;;;;0.40;0.30;;;;;;;18.35;100.00;99812.38;5018221;28;20515;-82
2021/07/15 06:54:53;;;;;;;0.40;0.20;;;;;;;18.34;100.00;99810.63;5016914;28;20457;-83
2021/07/15 06:57:19;;;;;;;0.40;0.20;;;;;;;18.68;100.00;99805.66;5033489;28;20550;-83
2021/07/15 06:59:46;;;;;;;0.40;0.30;;;;;;;18.86;100.00;99818.69;5035341;28;20491;-82
2021/07/15 07:02:12;;;;;;;0.40;0.20;;;;;;;18.74;100.00;99808.78;5013013;28;20440;-83
2021/07/15 07:04:39;;;;;;;0.40;0.20;;;;;;;18.90;100.00;99824.72;5016167;28;20427;-82
2021/07/15 07:07:06;;;;;;;0.40;0.30;;;;;;;19.00;100.00;99820.41;5011062;28;20452;-83
2021/07/15 07:09:33;;;;;;;0.40;0.20;;;;;;;18.83;100.00;99820.75;5012412;28;20456;-83
2021/07/15 07:11:59;;;;;;;0.40;0.20;;;;;;;18.46;100.00;99831.34;5008661;28;20472;-83
2021/07/15 07:14:26;;;;;;;0.40;0.20;;;;;;;18.56;100.00;99820.81;5005153;28;20492;-83
2021/07/15 07:16:52;;;;;;;0.40;0.20;;;;;;;18.26;100.00;99827.31;5016422;28;20455;-85
2021/07/15 07:19:19;;;;;;;0.40;0.20;;;;;;;18.76;100.00;99822.13;5015220;28;20469;-84
2021/07/15 07:21:46;;;;;;;0.40;0.30;;;;;;;18.90;100.00;99822.88;5018963;28;20966;-85
2021/07/15 07:24:12;;;;;;;0.40;0.20;;;;;;;18.81;100.00;99823.56;5032343;28;20457;-85
2021/07/15 07:26:39;;;;;;;0.40;0.20;;;;;;;18.85;100.00;99829.59;5020980;28;20487;-84
2021/07/15 07:29:06;;;;;;;0.40;0.20;;;;;;;19.00;100.00;99828.50;5019866;28;20511;-84
2021/07/15 07:31:33;;;;;;;10.33;1.47;;;;;;;19.18;100.00;99823.63;5013615;28;20473;-84
2021/07/15 07:34:00;;;;;;;0.40;0.20;;;;;;;19.39;100.00;99827.47;5014033;28;20457;-83
2021/07/15 07:36:26;;;;;;;0.40;0.20;;;;;;;19.41;100.00;99827.38;5013277;28;20487;-83
2021/07/15 07:38:53;;;;;;;0.40;0.20;;;;;;;19.19;100.00;99825.38;5017016;28;20934;-84
2021/07/15 07:41:20;;;;;;;0.40;0.20;;;;;;;19.16;100.00;99837.22;5014909;28;20481;-83
2021/07/15 07:43:47;;;;;;;0.40;0.40;;;;;;;19.14;100.00;99827.50;5016664;28;20493;-83
2021/07/15 07:46:13;;;;;;;0.40;0.20;;;;;;;19.05;100.00;99829.06;5012123;28;20526;-84
2021/07/15 07:48:40;;;;;;;0.40;0.20;;;;;;;19.29;100.00;99836.34;5012646;28;20461;-83
2021/07/15 07:51:10;;;;;;;0.40;0.20;;;;;;;19.61;100.00;99840.31;5012623;28;20443;-83
2021/07/15 07:53:36;;;;;;;0.40;0.30;;;;;;;19.93;100.00;99834.34;5012354;28;20443;-83
2021/07/15 07:56:03;;;;;;;0.40;0.20;;;;;;;19.99;100.00;99837.44;5028777;28;20415;-84
2021/07/15 07:58:30;;;;;;;0.40;0.20;;;;;;;19.86;100.00;99846.56;5015156;28;20491;-83
2021/07/15 08:00:58;;;;;;;0.50;0.40;;;;;;;20.10;100.00;99848.31;5012539;28;20431;-83
2021/07/15 08:03:25;;;;;;;0.40;0.20;;;;;;;20.20;100.00;99848.47;5023102;28;20472;-84
2021/07/15 08:05:52;;;;;;;0.40;0.20;;;;;;;19.66;100.00;99853.44;5024332;28;20453;-84
2021/07/15 08:08:19;;;;;;;0.40;0.20;;;;;;;19.81;100.00;99847.78;5001165;28;20800;-84
2021/07/15 08:10:46;;;;;;;0.40;0.30;;;;;;;20.05;100.00;99852.34;5017485;28;20966;-84
2021/07/15 08:13:13;;;;;;;0.40;0.20;;;;;;;20.38;100.00;99851.63;5016627;28;20531;-84
2021/07/15 08:15:40;;;;;;;0.40;0.20;;;;;;;20.39;100.00;99847.94;5017524;28;20467;-84
2021/07/15 08:18:08;;;;;;;0.40;0.20;;;;;;;20.30;100.00;99849.50;5001916;28;20538;-83
2021/07/15 08:20:34;;;;;;;0.40;0.30;;;;;;;20.48;100.00;99849.13;5015668;28;20448;-83
2021/07/15 08:23:02;;;;;;;0.40;0.20;;;;;;;20.66;100.00;99842.28;5002069;28;20476;-84
2021/07/15 08:25:28;;;;;;;0.40;0.20;;;;;;;20.55;100.00;99843.09;5031533;28;20435;-84
2021/07/15 08:27:55;;;;;;;0.40;0.20;;;;;;;20.52;100.00;99854.16;5032568;28;20518;-84
2021/07/15 08:30:22;;;;;;;0.50;0.37;;;;;;;20.47;100.00;99855.50;5016475;28;20906;-83
2021/07/15 08:32:49;;;;;;;0.40;0.20;;;;;;;20.83;99.22;99858.06;5033734;28;21001;-84
2021/07/15 08:35:24;;;;;;;0.40;0.20;;;;;;;20.93;100.00;99859.03;5033017;28;20518;-84
2021/07/15 08:37:51;;;;;;;0.40;0.20;;;;;;;20.65;100.00;99873.84;5018360;28;20488;-84
2021/07/15 08:40:17;;;;;;;0.40;0.20;;;;;;;20.62;99.80;99868.69;5020158;28;20461;-84
2021/07/15 08:42:45;;;;;;;0.40;0.20;;;;;;;20.73;98.85;99869.69;5007508;28;20523;-84
2021/07/15 08:45:12;;;;;;;1.87;1.80;;;;;;;20.65;99.02;99873.84;5019644;28;20459;-84
2021/07/15 08:47:41;;;;;;;0.40;0.20;;;;;;;20.77;100.00;99876.56;5019036;28;20459;-83
2021/07/15 08:50:18;;;;;;;0.40;0.20;;;;;;;20.83;99.42;99885.09;5051450;28;20461;-83
2021/07/15 08:52:45;;;;;;;0.40;0.20;;;;;;;20.59;99.86;99878.88;5035349;28;20456;-84
2021/07/15 08:57:43;;;;;;;0.40;0.30;;;;;;;20.42;100.00;99874.72;5018848;28;20591;-84
2021/07/15 09:00:16;;;;;;;0.40;0.20;;;;;;;21.07;98.05;99873.31;5019140;28;20453;-84
2021/07/15 09:02:44;;;;;;;0.40;0.20;;;;;;;21.14;99.88;99879.97;5019329;28;20537;-84
2021/07/15 09:05:14;;;;;;;0.40;0.20;;;;;;;20.98;95.72;99886.59;5019304;28;20954;-84
2021/07/15 09:07:41;;;;;;;6.60;1.07;;;;;;;21.03;97.19;99883.50;5017612;28;20926;-84
2021/07/15 09:10:09;;;;;;;0.40;0.20;;;;;;;20.52;97.43;99883.00;5014651;28;20450;-84
2021/07/15 09:12:36;;;;;;;0.40;0.20;;;;;;;20.63;96.38;99886.59;5008600;28;20523;-84
2021/07/15 09:15:14;;;;;;;0.40;0.20;;;;;;;20.90;97.35;99889.00;5018490;28;20460;-84
2021/07/15 09:17:41;;;;;;;0.40;0.20;;;;;;;20.61;100.00;99893.09;5019173;28;20539;-84
2021/07/15 09:20:14;;;;;;;0.40;0.37;;;;;;;20.62;97.39;99876.78;5018482;28;20452;-84
2021/07/15 09:23:02;;;;;;;0.40;0.20;;;;;;;20.78;96.71;99875.59;5005160;28;20470;-85
2021/07/15 09:25:49;;;;;;;0.40;0.20;;;;;;;21.12;97.16;99884.66;5009078;28;20495;-84
2021/07/15 09:28:24;;;;;;;0.40;0.20;;;;;;;21.19;95.92;99883.16;5016346;28;20463;-84
2021/07/15 09:30:51;;;;;;;0.40;0.30;;;;;;;21.19;97.14;99889.44;5004099;28;20897;-84
2021/07/15 09:33:18;;;;;;;0.67;0.67;;;;;;;21.24;95.64;99892.66;5018440;28;20473;-84
2021/07/15 09:35:47;;;;;;;0.50;0.40;;;;;;;20.96;95.26;99885.81;5018647;28;20576;-84
2021/07/15 09:38:17;;;;;;;0.40;0.20;;;;;;;20.85;93.49;99882.25;5017961;28;20519;-84
2021/07/15 09:40:52;;;;;;;0.40;0.20;;;;;;;20.99;92.90;99882.91;5032392;28;20576;-85
2021/07/15 09:43:26;;;;;;;0.40;0.20;;;;;;;21.03;95.38;99893.47;5052179;28;20452;-84
2021/07/15 09:46:00;;;;;;;0.40;0.20;;;;;;;20.86;93.29;99901.06;5018658;28;20518;-84
2021/07/15 09:48:29;;;;;;;0.40;0.30;;;;;;;20.84;94.29;99902.16;5034207;28;20452;-84
2021/07/15 09:50:57;;;;;;;0.40;0.20;;;;;;;20.93;93.49;99917.63;5034561;28;20507;-84
2021/07/15 09:53:31;;;;;;;0.40;0.20;;;;;;;20.75;95.57;99895.59;5034138;28;20836;-83
2021/07/15 09:56:05;;;;;;;0.40;0.20;;;;;;;20.88;95.90;99890.97;5019764;28;20465;-84
2021/07/15 09:58:33;;;;;;;0.40;0.20;;;;;;;20.84;96.54;99894.91;5033449;28;20854;-84
2021/07/15 10:01:08;;;;;;;0.40;0.20;;;;;;;20.92;97.48;99887.06;5052030;28;20444;-85
2021/07/15 10:03:37;;;;;;;0.40;0.20;;;;;;;21.15;97.60;99882.56;5050332;28;20503;-84
2021/07/15 10:06:06;;;;;;;0.40;0.20;;;;;;;21.05;96.65;99886.09;5018105;28;20482;-84
2021/07/15 10:08:34;;;;;;;0.40;0.27;;;;;;;20.89;97.91;99889.13;5018193;28;20812;-85
2021/07/15 10:11:17;;;;;;;0.50;0.50;;;;;;;21.09;98.49;99880.31;5046713;28;20464;-84
2021/07/15 10:13:47;;;;;;;0.40;0.20;;;;;;;21.35;96.77;99882.84;5036305;28;20460;-85
2021/07/15 10:16:14;;;;;;;0.50;0.33;;;;;;;21.10;95.84;99886.59;5019438;28;20460;-84
2021/07/15 10:18:47;;;;;;;0.40;0.20;;;;;;;21.46;95.44;99890.97;5018667;28;20492;-84
2021/07/15 10:21:14;;;;;;;0.40;0.20;;;;;;;21.55;93.58;99884.81;5018026;28;20472;-84
2021/07/15 10:23:44;;;;;;;0.40;0.20;;;;;;;22.04;92.56;99889.78;5008487;28;20479;-85
2021/07/15 10:26:26;;;;;;;0.40;0.20;;;;;;;21.67;92.89;99899.22;5012215;28;20465;-84
2021/07/15 10:28:53;;;;;;;0.40;0.30;;;;;;;21.71;92.61;99906.09;5009260;28;20567;-84
2021/07/15 10:31:22;;;;;;;0.40;0.20;;;;;;;21.68;89.91;99900.94;5018691;28;20958;-85
2021/07/15 10:33:49;;;;;;;0.40;0.20;;;;;;;21.35;91.14;99913.44;5049415;28;20493;-85
2021/07/15 10:36:15;;;;;;;0.40;0.20;;;;;;;21.42;90.61;99912.00;5032489;28;20453;-84
2021/07/15 10:38:46;;;;;;;0.40;0.30;;;;;;;21.59;89.50;99922.31;5015825;28;20507;-84
2021/07/15 10:41:13;;;;;;;0.40;0.20;;;;;;;21.68;91.22;99912.59;5035086;28;20860;-84
2021/07/15 10:43:40;;;;;;;0.40;0.20;;;;;;;21.83;89.08;99913.22;5031535;28;20474;-84
2021/07/15 10:46:08;;;;;;;0.40;0.30;;;;;;;21.95;89.14;99917.63;5032331;28;20456;-84
2021/07/15 10:48:37;;;;;;;0.40;0.20;;;;;;;22.22;87.52;99908.25;5052557;28;20460;-83
2021/07/15 10:51:05;;;;;;;0.40;0.30;;;;;;;22.30;86.88;99914.72;5014116;28;20441;-84
2021/07/15 10:53:40;;;;;;;0.40;0.20;;;;;;;22.31;86.84;99921.00;5014730;28;20614;-85
2021/07/15 10:56:08;;;;;;;0.40;0.20;;;;;;;22.13;87.46;99910.72;5030337;28;20953;-84
2021/07/15 10:59:26;;;;;;;0.40;0.20;;;;;;;22.18;87.56;99918.44;5030400;28;20492;-84
2021/07/15 11:01:55;;;;;;;0.40;0.23;;;;;;;22.06;86.13;99914.91;5006207;28;20463;-84
2021/07/15 11:04:37;;;;;;;0.40;0.30;;;;;;;22.15;84.07;99913.28;5004789;28;20447;-84
2021/07/15 11:07:31;;;;;;;0.40;0.30;;;;;;;22.41;84.35;99917.41;5014323;28;21005;-84
2021/07/15 11:10:24;;;;;;;0.40;0.20;;;;;;;22.69;82.92;99910.53;5009449;28;20465;-84
2021/07/15 11:12:59;;;;;;;0.40;0.30;;;;;;;23.15;82.55;99913.88;5012876;28;20484;-84
2021/07/15 11:15:45;;;;;;;0.40;0.20;;;;;;;23.37;81.36;99908.28;5045753;28;20456;-83
2021/07/15 11:18:49;;;;;;;0.50;0.30;;;;;;;23.21;82.88;99911.50;5030688;28;20523;-84
2021/07/15 11:21:29;;;;;;;0.40;0.30;;;;;;;23.09;80.81;99912.56;5027522;28;20956;-85
2021/07/15 11:24:05;;;;;;;0.40;0.30;;;;;;;23.24;81.68;99919.34;5004953;28;20526;-84
2021/07/15 11:26:43;;;;;;;0.50;0.50;;;;;;;23.85;80.06;99915.84;5029466;28;20526;-84
2021/07/15 11:29:12;;;;;;;0.40;0.30;;;;;;;23.70;77.28;99920.75;5014566;28;20510;-84
2021/07/15 11:31:47;;;;;;;0.40;0.30;;;;;;;23.09;77.51;99931.53;5002263;28;20467;-84
2021/07/15 11:34:42;;;;;;;0.40;0.30;;;;;;;23.58;76.28;99930.00;5012932;28;20486;-85
2021/07/15 11:37:32;;;;;;;0.40;0.30;;;;;;;23.88;75.10;99916.41;5029107;28;20837;-84
2021/07/15 11:40:00;;;;;;;0.40;0.30;;;;;;;23.77;77.60;99924.66;5033526;28;20794;-85
2021/07/15 11:42:32;;;;;;;0.40;0.30;;;;;;;24.14;72.84;99924.91;5052961;28;20993;-84
2021/07/15 11:45:05;;;;;;;0.40;0.20;;;;;;;23.78;74.53;99923.66;5051507;28;20503;-85